createdAt,value
2023-02-11T00:01:55.617Z,36.40
2023-02-11T00:04:22.569Z,41.13
2023-02-11T00:06:49.147Z,39.23
2023-02-11T00:09:15.746Z,43.13
2023-02-11T00:11:42.347Z,40.47
2023-02-11T00:14:10.842Z,38.67
2023-02-11T00:16:37.562Z,39.13
2023-02-11T00:19:06.341Z,38.87
2023-02-11T00:21:33.425Z,35.97
2023-02-11T00:24:02.215Z,37.90
2023-02-11T00:26:31.812Z,39.67
2023-02-11T00:28:59.087Z,38.97
2023-02-11T00:31:26.639Z,39.80
2023-02-11T00:33:53.932Z,39.23
2023-02-11T00:36:23.702Z,41.07
2023-02-11T00:38:51.759Z,46.93
2023-02-11T00:41:19.070Z,39.93
2023-02-11T00:43:45.865Z,40.80
2023-02-11T00:46:12.815Z,39.83
2023-02-11T00:48:42.214Z,46.63
2023-02-11T00:51:09.633Z,45.50
2023-02-11T00:53:36.688Z,39.07
2023-02-11T00:56:06.828Z,48.67
2023-02-11T00:58:34.363Z,41.90
2023-02-11T01:01:01.020Z,43.30
2023-02-11T01:03:27.755Z,45.47
2023-02-11T01:05:55.943Z,46.30
2023-02-11T01:08:22.738Z,39.20
2023-02-11T01:11:00.830Z,43.97
2023-02-11T01:13:29.040Z,42.23
2023-02-11T01:15:56.494Z,44.67
2023-02-11T01:18:26.823Z,46.83
2023-02-11T01:20:56.543Z,44.03
2023-02-11T01:23:23.177Z,41.77
2023-02-11T01:25:50.425Z,45.07
2023-02-11T01:28:38.224Z,48.47
2023-02-11T01:31:04.949Z,46.10
2023-02-11T01:33:34.274Z,44.07
2023-02-11T01:36:03.157Z,47.90
2023-02-11T01:38:30.794Z,41.07
2023-02-11T01:41:00.434Z,46.10
2023-02-11T01:43:29.704Z,46.50
2023-02-11T01:46:01.717Z,44.70
2023-02-11T01:48:32.054Z,46.33
2023-02-11T01:51:03.492Z,45.53
2023-02-11T01:53:49.204Z,47.93
2023-02-11T01:56:37.582Z,45.93
2023-02-11T01:59:09.530Z,45.20
2023-02-11T02:01:38.083Z,46.57
2023-02-11T02:04:05.605Z,47.27
2023-02-11T02:06:45.471Z,48.50
2023-02-11T02:09:27.203Z,48.47
2023-02-11T02:11:54.008Z,50.67
2023-02-11T02:14:20.683Z,50.53
2023-02-11T02:16:47.330Z,56.60
2023-02-11T02:19:51.036Z,53.10
2023-02-11T02:22:26.745Z,51.47
2023-02-11T02:25:13.678Z,49.53
2023-02-11T02:28:14.727Z,54.53
2023-02-11T02:31:00.011Z,63.53
2023-02-11T02:33:51.288Z,59.30
2023-02-11T02:36:30.984Z,59.57
2023-02-11T02:39:01.215Z,56.77
2023-02-11T02:41:33.037Z,54.53
2023-02-11T02:44:00.216Z,55.03
2023-02-11T02:46:32.226Z,54.73
2023-02-11T02:48:59.048Z,56.33
2023-02-11T02:51:47.351Z,54.43
2023-02-11T02:54:39.241Z,53.83
2023-02-11T02:57:30.175Z,55.90
2023-02-11T03:00:18.299Z,59.47
2023-02-11T03:02:50.963Z,58.67
2023-02-11T03:05:47.614Z,57.53
2023-02-11T03:08:30.191Z,59.30
2023-02-11T03:10:58.183Z,56.40
2023-02-11T03:13:28.099Z,50.77
2023-02-11T03:15:56.938Z,55.07
2023-02-11T03:18:26.485Z,56.37
2023-02-11T03:20:54.472Z,59.93
2023-02-11T03:23:29.562Z,62.50
2023-02-11T03:26:03.462Z,68.53
2023-02-11T03:28:39.004Z,58.78
2023-02-11T03:31:13.008Z,58.80
2023-02-11T03:33:54.812Z,62.65
2023-02-11T03:36:27.519Z,57.43
2023-02-11T03:38:56.976Z,63.67
2023-02-11T03:41:24.669Z,60.43
2023-02-11T03:43:54.449Z,62.93
2023-02-11T03:46:27.387Z,64.57
2023-02-11T03:48:56.589Z,66.20
2023-02-11T03:51:24.393Z,63.03
2023-02-11T03:53:53.308Z,62.03
2023-02-11T03:56:22.450Z,60.20
2023-02-11T03:58:49.195Z,61.57
2023-02-11T04:01:15.948Z,57.97
2023-02-11T04:03:42.842Z,60.97
2023-02-11T04:06:09.551Z,55.20
2023-02-11T04:08:36.139Z,62.07
2023-02-11T04:11:02.816Z,62.17
2023-02-11T04:13:29.522Z,64.60
2023-02-11T04:15:56.162Z,63.27
2023-02-11T04:18:22.781Z,58.93
2023-02-11T04:20:50.515Z,66.30
2023-02-11T04:23:17.228Z,65.03
2023-02-11T04:25:43.854Z,58.83
2023-02-11T04:28:10.512Z,64.17
2023-02-11T04:30:37.152Z,63.13
2023-02-11T04:33:03.798Z,63.93
2023-02-11T04:35:30.426Z,68.60
2023-02-11T04:37:57.481Z,60.63
2023-02-11T04:40:24.188Z,62.17
2023-02-11T04:42:50.807Z,57.27
2023-02-11T04:45:17.534Z,60.97
2023-02-11T04:47:44.157Z,62.77
2023-02-11T04:50:10.861Z,64.83
2023-02-11T04:52:37.531Z,62.10
2023-02-11T04:55:04.476Z,58.13
2023-02-11T04:57:31.134Z,57.87
2023-02-11T04:59:57.792Z,64.30
2023-02-11T05:02:24.495Z,68.03
2023-02-11T05:04:51.116Z,62.90
2023-02-11T05:07:17.748Z,63.60
2023-02-11T05:09:44.422Z,63.53
2023-02-11T05:12:11.070Z,65.07
2023-02-11T05:14:37.721Z,64.73
2023-02-11T05:17:04.322Z,65.67
2023-02-11T05:19:32.042Z,66.17
2023-02-11T05:22:03.028Z,59.13
2023-02-11T05:24:32.383Z,61.27
2023-02-11T05:26:59.221Z,60.73
2023-02-11T05:29:25.917Z,63.30
2023-02-11T05:31:52.690Z,61.60
2023-02-11T05:34:19.339Z,61.80
2023-02-11T05:36:45.968Z,63.43
2023-02-11T05:39:12.685Z,62.73
2023-02-11T05:41:39.338Z,58.67
2023-02-11T05:44:06.035Z,59.30
2023-02-11T05:46:32.747Z,66.43
2023-02-11T05:48:59.874Z,68.97
2023-02-11T05:51:26.484Z,66.60
2023-02-11T05:53:53.403Z,70.17
2023-02-11T05:56:20.041Z,63.37
2023-02-11T05:58:46.715Z,61.63
2023-02-11T06:01:13.367Z,58.93
2023-02-11T06:03:40.142Z,65.67
2023-02-11T06:06:10.695Z,73.63
2023-02-11T06:08:39.197Z,59.13
2023-02-11T06:11:06.039Z,66.97
2023-02-11T06:13:32.642Z,60.63
2023-02-11T06:16:00.782Z,65.03
2023-02-11T06:18:27.918Z,62.80
2023-02-11T06:20:54.551Z,63.17
2023-02-11T06:23:21.809Z,66.23
2023-02-11T06:25:49.093Z,64.27
2023-02-11T06:28:16.307Z,63.47
2023-02-11T06:30:43.030Z,68.47
2023-02-11T06:33:09.723Z,66.83
2023-02-11T06:35:38.798Z,72.40
2023-02-11T06:38:05.449Z,70.43
2023-02-11T06:40:32.116Z,64.87
2023-02-11T06:42:58.748Z,69.03
2023-02-11T06:45:25.391Z,72.47
2023-02-11T06:47:52.842Z,66.63
2023-02-11T06:50:19.531Z,66.70
2023-02-11T06:52:46.274Z,71.13
2023-02-11T06:55:13.286Z,79.17
2023-02-11T06:57:40.032Z,65.37
2023-02-11T07:00:07.220Z,77.90
2023-02-11T07:02:33.960Z,73.37
2023-02-11T07:05:00.606Z,68.60
2023-02-11T07:07:27.545Z,80.93
2023-02-11T07:09:54.181Z,75.73
2023-02-11T07:12:20.867Z,72.67
2023-02-11T07:14:47.503Z,75.00
2023-02-11T07:17:14.172Z,76.13
2023-02-11T07:19:40.900Z,81.23
2023-02-11T07:22:07.499Z,77.33
2023-02-11T07:24:34.137Z,76.57
2023-02-11T07:27:00.717Z,82.23
2023-02-11T07:29:27.347Z,79.93
2023-02-11T07:31:54.067Z,77.37
2023-02-11T07:34:20.761Z,83.83
2023-02-11T07:36:48.976Z,82.67
2023-02-11T07:39:16.049Z,75.17
2023-02-11T07:41:44.460Z,83.67
2023-02-11T07:44:11.042Z,88.70
2023-02-11T07:46:37.786Z,76.70
2023-02-11T07:49:04.444Z,79.73
2023-02-11T07:51:31.368Z,79.93
2023-02-11T07:53:59.609Z,87.37
2023-02-11T07:56:26.901Z,72.43
2023-02-11T07:58:54.484Z,82.50
2023-02-11T08:01:25.358Z,73.73
2023-02-11T08:03:52.686Z,78.73
2023-02-11T08:06:21.021Z,80.73
2023-02-11T08:08:47.820Z,79.87
2023-02-11T08:11:22.645Z,72.70
2023-02-11T08:13:49.260Z,74.70
2023-02-11T08:16:24.724Z,76.20
2023-02-11T08:18:52.157Z,71.53
2023-02-11T08:21:19.666Z,76.40
2023-02-11T08:23:49.805Z,82.97
2023-02-11T08:26:28.432Z,72.97
2023-02-11T08:28:56.730Z,70.67
2023-02-11T08:31:26.144Z,82.20
2023-02-11T08:33:54.613Z,74.27
2023-02-11T08:36:23.839Z,76.50
2023-02-11T08:38:50.566Z,76.53
2023-02-11T08:41:17.934Z,72.50
2023-02-11T08:43:45.508Z,71.70
2023-02-11T08:46:16.951Z,71.50
2023-02-11T08:48:44.387Z,72.80
2023-02-11T08:51:18.303Z,71.23
2023-02-11T08:53:45.899Z,71.50
2023-02-11T08:56:19.030Z,75.27
2023-02-11T08:58:46.084Z,77.97
2023-02-11T09:01:13.368Z,68.87
2023-02-11T09:03:40.371Z,72.90
2023-02-11T09:06:08.685Z,66.27
2023-02-11T09:08:36.707Z,75.13
2023-02-11T09:11:13.461Z,71.53
2023-02-11T09:13:41.918Z,67.37
2023-02-11T09:16:13.950Z,68.80
2023-02-11T09:18:40.546Z,63.83
2023-02-11T09:21:09.444Z,71.90
2023-02-11T09:23:41.719Z,66.67
2023-02-11T09:26:10.546Z,64.27
2023-02-11T09:28:37.278Z,65.70
2023-02-11T09:31:08.635Z,64.20
2023-02-11T09:33:35.895Z,68.97
2023-02-11T09:36:06.757Z,73.37
2023-02-11T09:38:33.727Z,69.93
2023-02-11T09:41:03.970Z,68.10
2023-02-11T09:43:39.353Z,62.87
2023-02-11T09:46:06.377Z,65.30
2023-02-11T09:48:38.734Z,65.90
2023-02-11T09:51:06.174Z,70.00
2023-02-11T09:53:37.449Z,67.60
2023-02-11T09:56:11.470Z,71.10
2023-02-11T09:58:41.534Z,61.53
2023-02-11T10:01:57.445Z,52.00
2023-02-11T10:04:48.531Z,61.47
2023-02-11T10:07:29.848Z,60.97
2023-02-11T10:10:13.586Z,57.17
2023-02-11T10:12:58.240Z,62.22
2023-02-11T10:15:39.973Z,61.70
2023-02-11T10:18:25.696Z,56.50
2023-02-11T10:21:01.552Z,58.97
2023-02-11T10:23:31.805Z,52.97
2023-02-11T10:26:00.285Z,54.17
2023-02-11T10:28:32.156Z,52.57
2023-02-11T10:31:08.637Z,53.00
2023-02-11T10:33:54.171Z,50.13
2023-02-11T10:36:24.019Z,53.93
2023-02-11T10:38:50.683Z,49.33
2023-02-11T10:41:22.016Z,42.77
2023-02-11T10:43:49.806Z,41.73
2023-02-11T10:46:19.771Z,45.20
2023-02-11T10:48:50.541Z,41.73
2023-02-11T10:51:27.378Z,45.60
2023-02-11T10:54:08.327Z,41.13
2023-02-11T10:56:36.846Z,42.50
2023-02-11T10:59:29.673Z,40.27
2023-02-11T11:02:06.943Z,38.40
2023-02-11T11:04:33.738Z,35.50
2023-02-11T11:07:23.709Z,35.97
2023-02-11T11:09:52.482Z,39.77
2023-02-11T11:12:30.281Z,43.47
2023-02-11T11:15:00.045Z,37.10
2023-02-11T11:17:29.686Z,39.27
2023-02-11T11:20:14.425Z,34.47
2023-02-11T11:22:41.982Z,30.17
2023-02-11T11:25:26.947Z,32.83
2023-02-11T11:27:56.338Z,30.43
2023-02-11T11:30:27.144Z,29.93
2023-02-11T11:32:53.999Z,26.13
2023-02-11T11:35:24.959Z,28.13
2023-02-11T11:38:01.355Z,26.30
2023-02-11T11:40:34.493Z,24.27
2023-02-11T11:43:13.192Z,23.47
2023-02-11T11:45:40.498Z,23.97
2023-02-11T11:48:13.625Z,23.13
2023-02-11T11:50:44.396Z,21.60
2023-02-11T11:53:24.801Z,19.80
2023-02-11T11:56:14.609Z,21.23
2023-02-11T11:58:41.407Z,21.40
2023-02-11T12:01:20.163Z,21.10
2023-02-11T12:04:08.423Z,18.60
2023-02-11T12:06:59.007Z,18.67
2023-02-11T12:09:47.496Z,19.73
2023-02-11T12:16:41.988Z,16.70
2023-02-11T12:19:36.576Z,17.90
2023-02-11T12:22:23.364Z,18.75
2023-02-11T12:25:05.349Z,15.13
2023-02-11T12:27:37.722Z,19.87
2023-02-11T12:30:14.435Z,15.97
2023-02-11T12:33:04.844Z,15.70
2023-02-11T12:35:52.175Z,16.53
2023-02-11T12:38:37.625Z,15.37
2023-02-11T12:41:39.423Z,15.37
2023-02-11T12:44:07.667Z,15.23
2023-02-11T12:46:51.881Z,13.07
2023-02-11T12:49:50.734Z,16.25
2023-02-11T12:52:32.546Z,15.07
2023-02-11T12:55:21.017Z,14.03
2023-02-11T12:57:49.119Z,12.23
2023-02-11T13:00:22.190Z,13.70
2023-02-11T13:03:10.969Z,14.17
2023-02-11T13:05:44.527Z,17.73
2023-02-11T13:08:28.061Z,15.45
2023-02-11T13:10:58.076Z,12.53
2023-02-11T13:13:33.695Z,12.63
2023-02-11T13:16:12.938Z,13.80
2023-02-11T13:19:06.839Z,13.17
2023-02-11T13:21:56.920Z,11.37
2023-02-11T13:28:40.310Z,14.03
2023-02-11T13:31:28.848Z,12.20
2023-02-11T13:33:55.800Z,11.90
2023-02-11T13:36:25.224Z,11.73
2023-02-11T13:38:59.933Z,12.40
2023-02-11T13:41:36.980Z,9.97
2023-02-11T13:44:08.653Z,12.93
2023-02-11T13:47:02.276Z,9.00
2023-02-11T13:49:40.878Z,11.30
2023-02-11T13:52:22.716Z,12.43
2023-02-11T13:54:52.721Z,9.70
2023-02-11T13:57:19.265Z,10.37
2023-02-11T13:59:48.678Z,11.27
2023-02-11T14:02:49.640Z,12.40
2023-02-11T14:05:46.193Z,10.37
2023-02-11T14:08:37.598Z,13.50
2023-02-11T14:11:30.671Z,11.20
2023-02-11T14:14:24.431Z,14.43
2023-02-11T14:17:08.019Z,11.75
2023-02-11T14:19:43.929Z,12.50
2023-02-11T14:22:10.569Z,10.17
2023-02-11T14:24:37.199Z,11.50
2023-02-11T14:27:11.255Z,13.90
2023-02-11T14:29:46.183Z,14.50
2023-02-11T14:32:41.046Z,12.90
2023-02-11T14:35:15.162Z,11.45
2023-02-11T14:40:39.189Z,9.40
2023-02-11T14:43:20.424Z,9.90
2023-02-11T14:45:51.167Z,11.50
2023-02-11T14:48:19.736Z,10.77
2023-02-11T14:51:02.334Z,9.90
2023-02-11T14:53:31.543Z,10.37
2023-02-11T14:55:59.237Z,9.87
2023-02-11T14:58:25.856Z,10.73
2023-02-11T15:01:06.509Z,10.90
2023-02-11T15:03:34.889Z,9.37
2023-02-11T15:06:07.498Z,10.53
2023-02-11T15:08:36.984Z,9.57
2023-02-11T15:11:10.028Z,11.23
2023-02-11T15:13:36.862Z,9.67
2023-02-11T15:16:08.504Z,10.87
2023-02-11T15:18:40.991Z,9.53
2023-02-11T15:21:08.217Z,12.07
2023-02-11T15:23:35.388Z,10.47
2023-02-11T15:26:05.703Z,10.40
2023-02-11T15:28:34.218Z,12.07
2023-02-11T15:31:05.993Z,11.97
2023-02-11T15:33:33.456Z,10.87
2023-02-11T15:36:00.842Z,10.60
2023-02-11T15:38:28.218Z,11.00
2023-02-11T15:41:02.775Z,8.47
2023-02-11T15:43:51.054Z,8.43
2023-02-11T15:46:21.305Z,12.27
2023-02-11T15:48:50.305Z,10.03
2023-02-11T15:51:29.445Z,10.87
2023-02-11T15:53:58.773Z,8.90
2023-02-11T15:56:35.390Z,10.70
2023-02-11T15:59:16.646Z,8.27
2023-02-11T16:01:44.849Z,8.20
2023-02-11T16:04:23.812Z,9.37
2023-02-11T16:06:51.859Z,7.27
2023-02-11T16:09:34.307Z,8.00
2023-02-11T16:12:21.365Z,8.10
2023-02-11T16:14:52.230Z,8.90
2023-02-11T16:17:19.059Z,7.37
2023-02-11T16:19:47.930Z,8.10
2023-02-11T16:22:20.365Z,6.70
2023-02-11T16:24:48.768Z,6.70
2023-02-11T16:27:30.447Z,6.80
2023-02-11T16:29:57.772Z,6.73
2023-02-11T16:32:29.056Z,5.43
2023-02-11T16:35:01.395Z,5.37
2023-02-11T16:37:28.209Z,7.47
2023-02-11T16:39:55.965Z,6.63
2023-02-11T16:42:23.347Z,4.67
2023-02-11T16:44:50.130Z,6.83
2023-02-11T16:47:23.703Z,7.43
2023-02-11T16:49:50.531Z,6.28
2023-02-11T16:52:18.287Z,8.23
2023-02-11T16:54:45.168Z,7.17
2023-02-11T16:57:15.310Z,6.23
2023-02-11T16:59:42.541Z,8.80
2023-02-11T17:02:29.153Z,6.60
2023-02-11T17:04:58.779Z,6.40
2023-02-11T17:07:25.386Z,5.27
2023-02-11T17:14:15.610Z,8.93
2023-02-11T17:16:42.996Z,5.73
2023-02-11T17:19:14.177Z,10.57
2023-02-11T17:21:45.107Z,7.57
2023-02-11T17:24:12.202Z,12.53
2023-02-11T17:26:39.349Z,11.33
2023-02-11T17:29:07.185Z,9.37
2023-02-11T17:31:34.244Z,8.00
2023-02-11T17:34:01.339Z,9.73
2023-02-11T17:36:28.089Z,11.00
2023-02-11T17:38:55.116Z,8.30
2023-02-11T17:41:21.725Z,7.83
2023-02-11T17:43:48.330Z,10.03
2023-02-11T17:46:15.182Z,9.80
2023-02-11T17:48:41.812Z,8.13
2023-02-11T17:51:32.388Z,11.90
2023-02-11T17:54:01.322Z,18.70
2023-02-11T17:56:29.896Z,13.33
2023-02-11T17:58:56.546Z,12.20
2023-02-11T18:01:23.303Z,10.93
2023-02-11T18:03:50.077Z,9.40
2023-02-11T18:06:17.074Z,7.03
2023-02-11T18:08:43.871Z,6.03
2023-02-11T18:11:12.141Z,10.37
2023-02-11T18:13:38.978Z,9.20
2023-02-11T18:16:06.287Z,8.50
2023-02-11T18:18:33.094Z,7.80
2023-02-11T18:21:01.715Z,10.63
2023-02-11T18:23:28.696Z,7.30
2023-02-11T18:25:55.427Z,8.60
2023-02-11T18:28:22.224Z,7.13
2023-02-11T18:30:48.974Z,9.57
2023-02-11T18:33:15.597Z,6.63
2023-02-11T18:35:43.677Z,6.10
2023-02-11T18:38:10.540Z,5.40
2023-02-11T18:40:40.801Z,5.37
2023-02-11T18:43:07.705Z,7.73
2023-02-11T18:45:34.626Z,6.73
2023-02-11T18:48:03.625Z,7.17
2023-02-11T18:50:30.275Z,6.10
2023-02-11T18:52:56.874Z,5.33
2023-02-11T18:55:25.777Z,4.83
2023-02-11T18:57:52.941Z,8.77
2023-02-11T19:00:20.856Z,6.40
2023-02-11T19:02:48.039Z,6.33
2023-02-11T19:05:15.669Z,9.77
2023-02-11T19:07:42.671Z,7.93
2023-02-11T19:10:10.171Z,7.07
2023-02-11T19:12:39.167Z,9.70
2023-02-11T19:15:09.316Z,4.93
2023-02-11T19:17:36.268Z,5.87
2023-02-11T19:20:06.004Z,11.27
2023-02-11T19:22:32.715Z,8.30
2023-02-11T19:24:59.620Z,7.37
2023-02-11T19:27:26.316Z,8.33
2023-02-11T19:29:53.073Z,7.03
2023-02-11T19:32:19.809Z,7.77
2023-02-11T19:34:46.510Z,5.07
2023-02-11T19:37:13.526Z,6.70
2023-02-11T19:39:41.171Z,7.57
2023-02-11T19:42:07.893Z,6.53
2023-02-11T19:44:34.504Z,9.63
2023-02-11T19:47:01.789Z,4.93
2023-02-11T19:49:28.414Z,7.77
2023-02-11T19:51:58.235Z,13.27
2023-02-11T19:54:31.842Z,9.63
2023-02-11T19:56:58.801Z,9.57
2023-02-11T19:59:25.504Z,7.33
2023-02-11T20:01:53.889Z,7.33
2023-02-11T20:04:20.626Z,7.53
2023-02-11T20:06:49.051Z,5.83
2023-02-11T20:09:15.908Z,6.67
2023-02-11T20:11:42.694Z,5.67
2023-02-11T20:14:12.565Z,7.43
2023-02-11T20:16:48.095Z,6.13
2023-02-11T20:19:18.127Z,3.93
2023-02-11T20:21:47.329Z,7.47
2023-02-11T20:24:15.469Z,7.40
2023-02-11T20:26:42.568Z,7.30
2023-02-11T20:29:09.292Z,8.70
2023-02-11T20:31:36.818Z,9.03
2023-02-11T20:34:03.807Z,4.37
2023-02-11T20:36:35.522Z,6.57
2023-02-11T20:39:04.883Z,9.03
2023-02-11T20:41:34.346Z,4.10
2023-02-11T20:44:05.789Z,8.53
2023-02-11T20:46:34.039Z,8.20
2023-02-11T20:49:00.992Z,6.93
2023-02-11T20:51:30.546Z,9.40
2023-02-11T20:53:57.745Z,9.50
2023-02-11T20:56:27.339Z,8.57
2023-02-11T20:58:54.728Z,8.47
2023-02-11T21:01:30.761Z,6.67
2023-02-11T21:03:59.935Z,7.17
2023-02-11T21:06:31.612Z,7.67
2023-02-11T21:08:58.347Z,10.30
2023-02-11T21:11:25.733Z,14.50
2023-02-11T21:13:52.324Z,8.83
2023-02-11T21:16:22.874Z,9.50
2023-02-11T21:18:52.422Z,9.00
2023-02-11T21:21:19.529Z,6.87
2023-02-11T21:23:46.576Z,4.70
2023-02-11T21:26:13.876Z,10.00
2023-02-11T21:28:41.207Z,6.10
2023-02-11T21:31:11.840Z,4.43
2023-02-11T21:33:51.757Z,4.43
2023-02-11T21:36:18.921Z,5.93
2023-02-11T21:38:56.280Z,8.13
2023-02-11T21:41:23.266Z,23.70
2023-02-11T21:43:50.754Z,22.00
2023-02-11T21:53:27.036Z,23.87
2023-02-11T21:56:08.106Z,14.17
2023-02-11T21:58:35.598Z,16.17
2023-02-11T22:01:02.770Z,15.77
2023-02-11T22:03:29.542Z,18.33
2023-02-11T22:05:56.512Z,12.07
2023-02-11T22:08:23.380Z,11.43
2023-02-11T22:10:50.146Z,15.47
2023-02-11T22:13:16.800Z,13.17
2023-02-11T22:15:43.712Z,11.57
2023-02-11T22:18:10.350Z,11.57
2023-02-11T22:20:37.047Z,10.30
2023-02-11T22:23:03.762Z,9.17
2023-02-11T22:25:30.444Z,8.70
2023-02-11T22:27:57.394Z,8.60
2023-02-11T22:30:24.283Z,12.30
2023-02-11T22:32:51.266Z,10.30
2023-02-11T22:35:18.325Z,6.33
2023-02-11T22:37:45.236Z,8.07
2023-02-11T22:40:12.792Z,4.63
2023-02-11T22:42:39.509Z,3.47
2023-02-11T22:45:07.466Z,3.97
2023-02-11T22:47:34.347Z,3.50
2023-02-11T22:50:01.201Z,3.60
2023-02-11T22:52:28.402Z,5.17
2023-02-11T22:54:55.308Z,2.60
2023-02-11T22:57:21.980Z,3.60
2023-02-11T22:59:49.114Z,3.40
2023-02-11T23:02:15.884Z,3.07
2023-02-11T23:04:43.052Z,4.13
2023-02-11T23:07:09.748Z,3.20
2023-02-11T23:09:36.378Z,5.10
2023-02-11T23:12:03.059Z,3.40
2023-02-11T23:14:29.902Z,4.70
2023-02-11T23:16:56.781Z,5.40
2023-02-11T23:19:23.975Z,4.70
2023-02-11T23:21:51.353Z,4.53
2023-02-11T23:24:18.014Z,3.83
2023-02-11T23:26:44.930Z,6.17
2023-02-11T23:29:12.033Z,9.77
2023-02-11T23:31:40.854Z,4.87
2023-02-11T23:34:08.049Z,3.93
2023-02-11T23:36:35.073Z,10.87
2023-02-11T23:39:01.745Z,4.70
2023-02-11T23:41:28.847Z,8.90
2023-02-11T23:43:57.103Z,7.03
2023-02-11T23:46:25.975Z,8.77
2023-02-11T23:48:53.292Z,9.53
2023-02-11T23:51:20.840Z,8.47
2023-02-11T23:53:49.203Z,4.77
2023-02-11T23:56:21.632Z,5.20
2023-02-11T23:58:49.828Z,4.27
